Time;durP1;ratioP1;P1;durP2;ratioP2;P2;SDS_P1;SDS_P2;PMS_P1;PMS_P2;Temp;Humidity;BMP_temperature;BMP_pressure;BME280_temperature;BME280_humidity;BME280_pressure;Samples;Min_cycle;Max_cycle;Signal;HPM_P1;HPM_P2
2023/03/11 00:00:15;;;;;;;1.80;1.37;;;2.70;99.90;;;;;;5081708;28;20456;-81
2023/03/11 00:02:42;;;;;;;1.23;1.13;;;2.70;99.90;;;;;;5080623;28;20464;-78
2023/03/11 00:05:09;;;;;;;1.50;1.40;;;2.60;99.90;;;;;;5077668;28;20462;-79
2023/03/11 00:07:38;;;;;;;1.20;1.10;;;2.50;99.90;;;;;;5061490;28;20541;-78
2023/03/11 00:10:06;;;;;;;1.50;1.13;;;2.50;99.90;;;;;;5060817;28;20449;-78
2023/03/11 00:12:33;;;;;;;1.33;1.23;;;2.40;99.90;;;;;;5059121;28;20445;-78
2023/03/11 00:15:00;;;;;;;1.63;1.50;;;2.40;99.90;;;;;;5058632;28;20449;-77
2023/03/11 00:17:28;;;;;;;1.73;1.23;;;2.30;99.90;;;;;;5055245;28;20721;-78
2023/03/11 00:19:55;;;;;;;1.83;1.37;;;2.30;99.90;;;;;;5056456;28;20465;-77
2023/03/11 00:22:22;;;;;;;3.70;1.60;;;2.30;99.90;;;;;;5060802;28;20479;-78
2023/03/11 00:24:49;;;;;;;1.67;1.57;;;2.20;99.90;;;;;;5075915;28;20464;-77
2023/03/11 00:27:15;;;;;;;2.03;1.00;;;2.20;99.90;;;;;;5075839;28;20437;-79
2023/03/11 00:29:42;;;;;;;1.37;1.27;;;2.10;99.90;;;;;;5075025;28;20489;-76
2023/03/11 00:32:09;;;;;;;1.20;1.10;;;2.10;99.90;;;;;;5078038;28;20499;-78
2023/03/11 00:34:37;;;;;;;1.77;1.27;;;2.10;99.90;;;;;;5079493;28;20463;-78
2023/03/11 00:37:04;;;;;;;1.53;1.00;;;2.10;99.90;;;;;;5081167;28;20449;-78
2023/03/11 00:39:31;;;;;;;2.03;1.20;;;2.10;99.90;;;;;;5067280;28;20465;-80
2023/03/11 00:41:58;;;;;;;1.40;1.30;;;2.20;99.90;;;;;;5059287;28;20437;-78
2023/03/11 00:44:24;;;;;;;1.10;0.90;;;2.10;99.90;;;;;;5057563;28;20969;-78
2023/03/11 00:46:51;;;;;;;1.37;1.27;;;1.90;99.90;;;;;;5053158;28;20453;-78
2023/03/11 00:49:18;;;;;;;1.30;1.07;;;2.00;99.90;;;;;;5054043;28;20496;-77
2023/03/11 00:51:46;;;;;;;1.40;1.30;;;2.00;99.90;;;;;;5053637;28;20457;-78
2023/03/11 00:54:13;;;;;;;4.53;1.10;;;2.00;99.90;;;;;;5053942;28;20446;-77
2023/03/11 00:56:40;;;;;;;1.20;0.90;;;2.00;99.90;;;;;;5066944;28;20547;-78
2023/03/11 00:59:07;;;;;;;1.10;1.00;;;1.90;99.90;;;;;;5069939;28;20456;-77
2023/03/11 01:01:34;;;;;;;1.23;1.13;;;1.90;99.90;;;;;;5072349;28;20460;-78
2023/03/11 01:04:01;;;;;;;1.27;1.00;;;1.90;99.90;;;;;;5077420;28;20480;-80
2023/03/11 01:06:27;;;;;;;1.37;1.17;;;1.90;99.90;;;;;;5088838;28;20425;-79
2023/03/11 01:08:56;;;;;;;3.00;1.63;;;1.90;99.90;;;;;;5062784;28;20484;-78
2023/03/11 01:11:22;;;;;;;1.10;1.00;;;1.80;99.90;;;;;;5068755;28;20499;-78
2023/03/11 01:13:49;;;;;;;1.10;1.00;;;1.80;99.90;;;;;;5071852;28;20444;-78
2023/03/11 01:16:16;;;;;;;1.30;1.20;;;1.80;99.90;;;;;;5076437;28;20463;-80
2023/03/11 01:18:43;;;;;;;6.80;1.60;;;1.80;99.90;;;;;;5076680;28;20947;-79
2023/03/11 01:21:09;;;;;;;1.37;1.27;;;1.80;99.90;;;;;;5075821;28;20476;-77
2023/03/11 01:23:36;;;;;;;1.80;1.30;;;1.80;99.90;;;;;;5073656;28;20849;-77
2023/03/11 01:26:05;;;;;;;1.47;1.37;;;1.70;99.90;;;;;;5073555;28;20968;-77
2023/03/11 01:28:31;;;;;;;0.83;0.80;;;1.70;99.90;;;;;;5069980;28;20485;-78
2023/03/11 01:30:58;;;;;;;1.50;1.40;;;1.70;99.90;;;;;;5051450;28;20468;-77
2023/03/11 01:33:25;;;;;;;1.40;1.30;;;1.60;99.90;;;;;;5051251;28;20450;-78
2023/03/11 01:35:52;;;;;;;1.20;1.10;;;1.60;99.90;;;;;;5051563;28;20449;-78
2023/03/11 01:38:19;;;;;;;1.77;1.20;;;1.60;99.90;;;;;;5051280;28;20633;-78
2023/03/11 01:40:48;;;;;;;1.17;0.93;;;1.90;99.90;;;;;;5051693;28;20483;-77
2023/03/11 01:43:40;;;;;;;2.33;1.30;;;1.60;99.90;;;;;;5051365;28;20883;-77
2023/03/11 01:46:12;;;;;;;2.73;1.33;;;1.60;99.90;;;;;;5058875;28;20543;-77
2023/03/11 01:48:41;;;;;;;1.27;1.17;;;1.60;99.90;;;;;;5071223;28;20525;-78
2023/03/11 01:51:09;;;;;;;1.27;1.17;;;1.60;99.90;;;;;;5072274;28;20512;-78
2023/03/11 01:53:36;;;;;;;1.33;1.23;;;1.60;99.90;;;;;;5073373;28;20455;-78
2023/03/11 01:56:04;;;;;;;1.30;1.20;;;1.80;99.90;;;;;;5073298;28;20758;-77
2023/03/11 01:58:34;;;;;;;1.33;1.23;;;1.60;99.90;;;;;;5073630;28;20440;-78
2023/03/11 02:01:03;;;;;;;1.20;1.07;;;1.50;99.90;;;;;;5073154;28;20730;-79
2023/03/11 02:03:32;;;;;;;1.50;1.30;;;1.50;99.90;;;;;;5071539;28;21006;-78
2023/03/11 02:06:02;;;;;;;1.30;1.20;;;1.60;99.90;;;;;;5072212;28;20463;-76
2023/03/11 02:08:32;;;;;;;1.53;1.30;;;1.50;99.90;;;;;;5071290;28;21007;-77
2023/03/11 02:11:01;;;;;;;2.60;1.43;;;1.40;99.90;;;;;;5070371;28;20966;-78
2023/03/11 02:13:29;;;;;;;1.50;1.20;;;1.40;99.90;;;;;;5069002;28;21053;-78
2023/03/11 02:15:56;;;;;;;1.37;1.00;;;1.40;99.90;;;;;;5069893;28;20818;-78
2023/03/11 02:18:24;;;;;;;1.40;1.30;;;1.20;99.90;;;;;;5070121;28;20517;-78
2023/03/11 02:21:00;;;;;;;1.30;1.20;;;1.50;99.90;;;;;;5070034;28;20513;-77
2023/03/11 02:23:33;;;;;;;1.20;1.00;;;1.40;99.90;;;;;;5070134;28;20437;-79
2023/03/11 02:26:05;;;;;;;1.07;0.90;;;1.30;99.90;;;;;;5070246;28;20510;-77
2023/03/11 02:28:35;;;;;;;2.20;1.30;;;1.30;99.90;;;;;;5069420;28;20559;-77
2023/03/11 02:31:02;;;;;;;1.30;1.20;;;1.30;99.90;;;;;;5070995;28;20449;-77
2023/03/11 02:33:32;;;;;;;1.20;1.10;;;1.30;99.90;;;;;;5072324;28;20527;-78
2023/03/11 02:35:59;;;;;;;1.23;1.13;;;1.20;99.90;;;;;;5072717;28;20449;-77
2023/03/11 02:38:26;;;;;;;1.23;1.13;;;1.20;99.90;;;;;;5071992;28;20456;-78
2023/03/11 02:40:56;;;;;;;1.20;1.10;;;1.20;99.90;;;;;;5075425;28;20467;-78
2023/03/11 02:43:27;;;;;;;1.07;1.00;;;1.20;99.90;;;;;;5075492;28;20494;-77
2023/03/11 02:45:56;;;;;;;1.03;0.97;;;1.20;99.90;;;;;;5073858;28;20468;-78
2023/03/11 02:48:24;;;;;;;1.53;0.93;;;1.10;99.90;;;;;;5075491;28;20484;-78
2023/03/11 02:50:51;;;;;;;2.50;1.30;;;1.10;99.90;;;;;;5074990;28;20456;-78
2023/03/11 02:53:18;;;;;;;1.40;1.30;;;1.10;99.90;;;;;;5074633;28;20709;-77
2023/03/11 02:55:45;;;;;;;1.40;1.30;;;1.10;99.90;;;;;;5074392;28;20455;-78
2023/03/11 02:58:12;;;;;;;1.40;1.23;;;1.10;99.90;;;;;;5075004;28;20440;-77
2023/03/11 03:00:39;;;;;;;1.50;1.27;;;1.10;99.90;;;;;;5074379;28;20464;-78
2023/03/11 03:03:07;;;;;;;1.33;1.10;;;1.00;99.90;;;;;;5074513;28;20450;-78
2023/03/11 03:05:34;;;;;;;1.47;1.10;;;1.00;99.90;;;;;;5075088;28;20440;-76
2023/03/11 03:08:02;;;;;;;3.33;1.00;;;1.00;99.90;;;;;;5074583;28;20871;-79
2023/03/11 03:10:29;;;;;;;2.07;1.33;;;1.00;99.90;;;;;;5073821;28;20481;-77
2023/03/11 03:12:56;;;;;;;1.30;1.20;;;1.00;99.90;;;;;;5074331;28;20843;-77
2023/03/11 03:15:23;;;;;;;1.30;1.20;;;1.00;99.90;;;;;;5073598;28;20535;-77
2023/03/11 03:17:50;;;;;;;1.20;1.10;;;0.90;99.90;;;;;;5072596;28;20465;-79
2023/03/11 03:20:21;;;;;;;1.40;1.23;;;0.90;99.90;;;;;;5073644;28;20468;-79
2023/03/11 03:22:50;;;;;;;1.03;0.93;;;0.90;99.90;;;;;;5073595;28;20452;-78
2023/03/11 03:25:17;;;;;;;1.37;1.27;;;0.90;99.90;;;;;;5074109;28;21097;-78
2023/03/11 03:27:44;;;;;;;1.13;1.00;;;0.90;99.90;;;;;;5073807;28;20467;-79
2023/03/11 03:30:11;;;;;;;1.50;1.30;;;0.90;99.90;;;;;;5074835;28;20479;-78
2023/03/11 03:32:38;;;;;;;1.97;1.20;;;1.10;99.90;;;;;;5074011;28;20479;-78
2023/03/11 03:35:06;;;;;;;1.40;1.30;;;0.90;99.90;;;;;;5072871;28;20468;-77
2023/03/11 03:37:36;;;;;;;1.40;1.30;;;0.90;99.90;;;;;;5075209;28;20453;-78
2023/03/11 03:40:06;;;;;;;1.20;1.10;;;0.90;99.90;;;;;;5075068;28;20445;-78
2023/03/11 03:42:34;;;;;;;1.23;1.00;;;0.90;99.90;;;;;;5071821;28;21236;-77
2023/03/11 03:45:00;;;;;;;1.23;1.10;;;0.80;99.90;;;;;;5071503;28;20452;-76
2023/03/11 03:47:27;;;;;;;1.27;1.13;;;0.90;99.90;;;;;;5071305;28;20453;-75
2023/03/11 03:49:54;;;;;;;1.10;1.00;;;0.80;99.90;;;;;;5066883;28;20481;-75
2023/03/11 03:52:21;;;;;;;1.53;0.90;;;0.90;99.90;;;;;;5072156;28;20463;-76
2023/03/11 03:54:49;;;;;;;1.00;0.90;;;0.80;99.90;;;;;;5071515;28;20424;-78
2023/03/11 03:57:16;;;;;;;2.43;1.40;;;0.80;99.90;;;;;;5070645;28;20790;-76
2023/03/11 03:59:42;;;;;;;1.03;0.97;;;0.80;99.90;;;;;;5069987;28;20462;-77
2023/03/11 04:02:09;;;;;;;1.50;1.13;;;0.70;99.90;;;;;;5053066;28;20949;-77
2023/03/11 04:04:36;;;;;;;1.30;1.20;;;0.80;99.90;;;;;;5062537;28;20877;-78
2023/03/11 04:07:04;;;;;;;1.20;1.10;;;0.70;99.90;;;;;;5073199;28;20472;-77
2023/03/11 04:09:31;;;;;;;1.10;1.00;;;0.70;99.90;;;;;;5074062;28;20487;-78
2023/03/11 04:11:59;;;;;;;1.43;0.97;;;0.70;99.90;;;;;;5074037;28;20433;-78
2023/03/11 04:14:26;;;;;;;1.23;1.13;;;0.70;99.90;;;;;;5072546;28;20850;-77
2023/03/11 04:16:53;;;;;;;1.00;0.90;;;0.70;99.90;;;;;;5073847;28;20445;-78
2023/03/11 04:19:20;;;;;;;1.47;1.37;;;0.70;99.90;;;;;;5073750;28;20471;-77
2023/03/11 04:21:46;;;;;;;1.20;1.10;;;0.60;99.90;;;;;;5073899;28;20479;-75
2023/03/11 04:24:13;;;;;;;1.10;1.00;;;0.60;99.90;;;;;;5072329;28;20475;-76
2023/03/11 04:26:40;;;;;;;1.30;1.20;;;0.60;99.90;;;;;;5072834;28;20441;-77
2023/03/11 04:29:08;;;;;;;1.50;1.20;;;0.60;99.90;;;;;;5073580;28;20457;-78
2023/03/11 04:31:35;;;;;;;1.23;1.13;;;0.60;99.90;;;;;;5074532;28;20801;-77
2023/03/11 04:34:02;;;;;;;1.03;0.90;;;0.60;99.90;;;;;;5075088;28;20980;-76
2023/03/11 04:36:29;;;;;;;2.13;0.93;;;0.60;99.90;;;;;;5073981;28;20452;-77
2023/03/11 04:38:56;;;;;;;0.80;0.80;;;0.60;99.90;;;;;;5065468;28;20573;-76
2023/03/11 04:41:23;;;;;;;1.20;1.10;;;0.60;99.90;;;;;;5072884;28;21016;-75
2023/03/11 04:43:50;;;;;;;2.67;1.20;;;0.60;99.90;;;;;;5073365;28;20797;-75
2023/03/11 04:46:18;;;;;;;1.37;1.27;;;0.60;99.90;;;;;;5073999;28;20539;-76
2023/03/11 04:48:45;;;;;;;1.23;1.13;;;0.60;99.90;;;;;;5070592;28;20476;-74
2023/03/11 04:51:11;;;;;;;2.30;1.30;;;0.50;99.90;;;;;;5070177;28;20489;-74
2023/03/11 04:53:40;;;;;;;1.07;0.97;;;0.50;99.90;;;;;;5070405;28;20441;-75
2023/03/11 04:56:09;;;;;;;1.13;1.03;;;0.60;99.90;;;;;;5069622;28;20568;-74
2023/03/11 04:58:36;;;;;;;2.13;1.30;;;0.60;99.90;;;;;;5070185;28;20471;-75
2023/03/11 05:01:04;;;;;;;2.90;1.43;;;0.60;99.90;;;;;;5070085;28;20448;-74
2023/03/11 05:03:34;;;;;;;3.37;1.50;;;0.60;99.90;;;;;;5070666;28;20497;-74
2023/03/11 05:06:01;;;;;;;1.87;1.57;;;0.70;99.90;;;;;;5090718;28;20436;-74
2023/03/11 05:08:28;;;;;;;1.70;1.50;;;0.70;99.90;;;;;;5090210;28;20483;-74
2023/03/11 05:10:58;;;;;;;2.70;2.30;;;0.70;99.90;;;;;;5090345;28;20542;-78
2023/03/11 05:13:27;;;;;;;1.30;1.20;;;0.70;99.90;;;;;;5089256;28;20551;-74
2023/03/11 05:15:54;;;;;;;1.40;1.10;;;0.70;99.90;;;;;;5072775;28;20458;-75
2023/03/11 05:18:22;;;;;;;3.13;1.60;;;0.70;99.90;;;;;;5090209;28;20805;-77
2023/03/11 05:20:52;;;;;;;1.40;1.20;;;0.80;99.90;;;;;;5090752;28;20502;-75
2023/03/11 05:23:19;;;;;;;2.83;1.27;;;0.80;99.90;;;;;;5090394;28;20458;-74
2023/03/11 05:25:46;;;;;;;1.27;1.17;;;0.80;99.90;;;;;;5088180;28;20458;-75
2023/03/11 05:28:12;;;;;;;1.97;1.13;;;0.70;99.90;;;;;;5091708;28;20495;-79
2023/03/11 05:30:39;;;;;;;1.77;1.17;;;0.80;99.90;;;;;;5091309;28;20507;-75
2023/03/11 05:33:06;;;;;;;1.47;1.37;;;0.80;99.90;;;;;;5096058;28;20454;-75
2023/03/11 05:35:32;;;;;;;1.50;1.40;;;0.70;99.90;;;;;;5093788;28;20474;-76
2023/03/11 05:38:00;;;;;;;1.53;1.30;;;0.70;99.90;;;;;;5090522;28;20447;-74
2023/03/11 05:40:27;;;;;;;1.60;1.37;;;0.70;99.90;;;;;;5091370;28;20471;-75
2023/03/11 05:42:54;;;;;;;1.40;1.30;;;0.70;99.90;;;;;;5091189;28;20447;-75
2023/03/11 05:45:21;;;;;;;2.23;1.40;;;0.70;99.90;;;;;;5089902;28;20958;-75
2023/03/11 05:47:47;;;;;;;1.53;1.37;;;0.60;99.90;;;;;;5088532;28;20837;-74
2023/03/11 05:50:14;;;;;;;1.40;1.30;;;0.60;99.90;;;;;;5089367;28;20829;-75
2023/03/11 05:52:41;;;;;;;1.50;1.40;;;0.60;99.90;;;;;;5089210;28;20447;-75
2023/03/11 05:55:11;;;;;;;1.30;1.20;;;0.70;99.90;;;;;;5089021;28;20447;-74
2023/03/11 05:57:38;;;;;;;1.60;1.50;;;0.60;99.90;;;;;;5089329;28;20976;-75
2023/03/11 06:00:10;;;;;;;1.00;0.90;;;0.50;99.90;;;;;;5089069;28;20737;-74
2023/03/11 06:02:37;;;;;;;1.43;1.10;;;0.50;99.90;;;;;;5087937;28;20510;-74
2023/03/11 06:05:05;;;;;;;1.20;1.10;;;0.50;99.90;;;;;;5088836;28;20459;-74
2023/03/11 06:07:33;;;;;;;2.10;1.40;;;0.50;99.90;;;;;;5089212;28;20839;-74
2023/03/11 06:10:00;;;;;;;1.33;1.23;;;0.40;99.90;;;;;;5088984;28;20479;-75
2023/03/11 06:12:28;;;;;;;1.77;1.30;;;0.40;99.90;;;;;;5089518;28;20931;-75
2023/03/11 06:14:55;;;;;;;1.60;1.03;;;0.50;99.90;;;;;;5091734;28;20440;-75
2023/03/11 06:17:21;;;;;;;1.63;1.20;;;0.40;99.90;;;;;;5093195;28;20454;-74
2023/03/11 06:19:48;;;;;;;1.33;1.10;;;0.40;99.90;;;;;;5088184;28;20493;-74
2023/03/11 06:22:15;;;;;;;4.63;1.57;;;0.50;99.90;;;;;;5081611;28;20456;-75
2023/03/11 06:24:42;;;;;;;1.40;1.30;;;0.40;99.90;;;;;;5078098;28;20455;-75
2023/03/11 06:27:10;;;;;;;1.50;1.10;;;0.40;99.90;;;;;;5093138;28;20501;-75
2023/03/11 06:29:38;;;;;;;3.47;1.20;;;0.30;99.90;;;;;;5093257;28;20534;-75
2023/03/11 06:32:05;;;;;;;1.67;1.30;;;0.40;99.90;;;;;;5093016;28;20459;-75
2023/03/11 06:34:32;;;;;;;1.30;1.20;;;0.50;99.90;;;;;;5091498;28;20475;-76
2023/03/11 06:36:59;;;;;;;1.40;1.20;;;0.50;99.90;;;;;;5092930;28;20467;-75
2023/03/11 06:39:26;;;;;;;1.20;1.10;;;0.40;99.90;;;;;;5093268;28;20513;-75
2023/03/11 06:41:53;;;;;;;1.30;1.20;;;0.40;99.90;;;;;;5092964;28;20444;-74
2023/03/11 06:44:20;;;;;;;1.97;1.50;;;0.30;99.90;;;;;;5093192;28;20443;-75
2023/03/11 06:46:48;;;;;;;1.70;1.60;;;0.40;99.90;;;;;;5092694;28;20557;-75
2023/03/11 06:49:15;;;;;;;1.53;1.43;;;0.20;99.90;;;;;;5091575;28;20467;-75
2023/03/11 06:51:42;;;;;;;1.77;1.50;;;0.30;99.90;;;;;;5092627;28;20484;-75
2023/03/11 06:54:10;;;;;;;1.93;1.10;;;0.40;99.90;;;;;;5092423;28;20458;-74
2023/03/11 06:56:37;;;;;;;1.47;1.37;;;0.40;99.90;;;;;;5092838;28;20789;-73
2023/03/11 06:59:04;;;;;;;2.07;1.30;;;0.30;99.90;;;;;;5092565;28;20443;-74
2023/03/11 07:01:31;;;;;;;1.57;1.30;;;0.40;99.90;;;;;;5092709;28;20531;-75
2023/03/11 07:03:59;;;;;;;1.53;1.30;;;0.70;99.90;;;;;;5093021;28;20718;-74
2023/03/11 07:06:27;;;;;;;1.60;1.30;;;0.70;99.90;;;;;;5091906;28;20470;-74
2023/03/11 07:11:30;;;;;;;1.50;1.40;;;0.40;99.90;;;;;;5290618;22;20505;-78
2023/03/11 07:13:57;;;;;;;2.23;1.50;;;0.30;99.90;;;;;;5048192;28;20987;-75
2023/03/11 07:16:25;;;;;;;3.10;2.20;;;0.40;99.90;;;;;;5050934;28;20450;-77
2023/03/11 07:18:54;;;;;;;2.70;1.40;;;0.40;99.90;;;;;;5052212;28;20461;-75
2023/03/11 07:21:23;;;;;;;1.63;1.53;;;0.50;99.90;;;;;;5041742;28;20460;-76
2023/03/11 07:23:53;;;;;;;2.20;1.80;;;0.40;99.90;;;;;;5035363;28;20557;-77
2023/03/11 07:26:20;;;;;;;1.63;1.53;;;0.40;99.90;;;;;;5031705;28;20454;-76
2023/03/11 07:28:48;;;;;;;2.57;2.00;;;0.80;99.90;;;;;;5035808;28;20462;-79
2023/03/11 07:31:17;;;;;;;1.70;1.60;;;1.00;99.90;;;;;;5036305;28;20551;-77
2023/03/11 07:33:44;;;;;;;1.83;1.73;;;0.90;99.90;;;;;;5034006;28;20541;-77
2023/03/11 07:36:14;;;;;;;2.80;1.80;;;0.70;99.90;;;;;;5034635;28;20462;-77
2023/03/11 07:38:43;;;;;;;1.60;1.50;;;0.80;99.90;;;;;;5031558;28;20524;-77
2023/03/11 07:41:11;;;;;;;2.00;1.90;;;1.00;99.90;;;;;;5017458;28;20471;-76
2023/03/11 07:43:39;;;;;;;7.53;2.00;;;1.10;99.90;;;;;;5023407;28;20469;-77
2023/03/11 07:46:07;;;;;;;1.93;1.83;;;1.10;99.90;;;;;;5031025;28;20469;-77
2023/03/11 07:48:35;;;;;;;4.23;1.83;;;1.00;99.90;;;;;;5034275;28;20465;-78
2023/03/11 07:51:03;;;;;;;2.33;2.20;;;0.90;99.90;;;;;;5035053;28;20485;-77
2023/03/11 07:53:30;;;;;;;2.90;1.60;;;1.20;99.90;;;;;;5035299;28;20436;-77
2023/03/11 07:56:01;;;;;;;1.73;1.60;;;1.10;99.90;;;;;;5035101;28;20452;-77
2023/03/11 07:58:29;;;;;;;3.30;1.90;;;1.40;99.90;;;;;;5034369;28;20856;-79
2023/03/11 08:00:57;;;;;;;1.80;1.70;;;2.30;99.90;;;;;;5010808;28;20464;-78
2023/03/11 08:03:24;;;;;;;1.93;1.73;;;2.30;99.90;;;;;;5031761;28;20436;-78
2023/03/11 08:05:52;;;;;;;2.10;1.90;;;1.80;99.90;;;;;;5039118;28;20458;-78
2023/03/11 08:08:21;;;;;;;2.90;1.87;;;1.40;99.90;;;;;;5038737;28;20455;-78
2023/03/11 08:10:48;;;;;;;3.83;2.10;;;1.60;99.90;;;;;;5057930;28;20490;-79
2023/03/11 08:13:16;;;;;;;2.03;1.87;;;1.50;99.90;;;;;;5067147;28;20460;-78
2023/03/11 08:15:43;;;;;;;1.77;1.47;;;1.50;99.90;;;;;;5059176;28;20450;-79
2023/03/11 08:18:10;;;;;;;2.30;1.23;;;2.10;99.90;;;;;;5026894;28;21019;-78
2023/03/11 08:20:38;;;;;;;2.10;1.80;;;3.60;99.90;;;;;;5020704;28;20571;-80
2023/03/11 08:23:05;;;;;;;2.47;1.70;;;4.90;99.90;;;;;;5010163;28;20456;-75
2023/03/11 08:25:32;;;;;;;4.33;1.97;;;4.30;99.90;;;;;;5010736;28;20454;-74
2023/03/11 08:27:59;;;;;;;1.50;1.40;;;2.40;99.90;;;;;;5012584;28;20460;-77
2023/03/11 08:30:27;;;;;;;2.13;1.93;;;1.90;99.90;;;;;;5012960;28;20455;-73
2023/03/11 08:32:54;;;;;;;3.13;2.20;;;1.20;99.90;;;;;;5011869;28;20505;-75
2023/03/11 08:35:21;;;;;;;2.80;1.50;;;1.50;99.90;;;;;;5013334;28;20458;-74
2023/03/11 08:37:47;;;;;;;1.80;1.70;;;1.40;99.90;;;;;;5025271;28;20535;-78
2023/03/11 08:40:14;;;;;;;4.27;2.00;;;1.00;99.90;;;;;;5035615;28;20462;-78
2023/03/11 08:42:41;;;;;;;1.60;1.50;;;1.90;99.90;;;;;;5034894;28;20478;-76
2023/03/11 08:45:09;;;;;;;1.70;1.60;;;2.60;99.90;;;;;;5034299;28;20444;-77
2023/03/11 08:47:38;;;;;;;2.27;1.70;;;3.00;99.90;;;;;;5028763;28;20911;-74
2023/03/11 08:50:08;;;;;;;1.67;1.57;;;4.50;99.90;;;;;;5027231;28;20468;-74
2023/03/11 08:52:35;;;;;;;2.53;2.00;;;2.90;99.90;;;;;;5030640;28;20502;-77
2023/03/11 08:55:03;;;;;;;2.20;1.80;;;2.30;99.90;;;;;;5030099;28;20442;-73
2023/03/11 08:57:30;;;;;;;3.30;2.10;;;2.40;99.90;;;;;;5030728;28;20455;-74
2023/03/11 08:59:58;;;;;;;1.73;1.60;;;3.00;99.90;;;;;;5041330;28;21009;-79
2023/03/11 09:02:24;;;;;;;3.57;1.47;;;2.70;99.90;;;;;;5051998;28;20468;-79
2023/03/11 09:04:53;;;;;;;2.50;2.23;;;3.30;99.90;;;;;;5048936;28;20490;-79
2023/03/11 09:07:20;;;;;;;2.53;1.50;;;2.10;99.90;;;;;;5044032;28;20735;-78
2023/03/11 09:09:46;;;;;;;2.70;1.70;;;1.80;99.90;;;;;;5036376;28;20950;-77
2023/03/11 09:12:13;;;;;;;2.43;1.70;;;2.20;99.90;;;;;;5039972;28;20476;-81
2023/03/11 09:14:40;;;;;;;2.20;1.57;;;2.60;99.90;;;;;;5042932;28;20828;-79
2023/03/11 09:17:08;;;;;;;2.60;1.90;;;2.70;99.90;;;;;;5040071;28;20478;-72
2023/03/11 09:19:42;;;;;;;2.00;1.17;;;3.80;99.90;;;;;;5039845;28;20986;-77
2023/03/11 09:22:11;;;;;;;2.20;1.77;;;3.00;99.90;;;;;;5046483;28;20472;-72
2023/03/11 09:24:38;;;;;;;1.73;1.30;;;2.10;99.90;;;;;;5047509;28;20465;-75
2023/03/11 09:27:05;;;;;;;2.33;1.70;;;2.90;99.90;;;;;;5044148;28;20926;-72
2023/03/11 09:29:32;;;;;;;3.37;1.50;;;2.70;99.90;;;;;;5045376;28;20973;-73
2023/03/11 09:31:59;;;;;;;7.63;3.60;;;3.40;99.90;;;;;;5050499;28;20478;-77
2023/03/11 09:34:26;;;;;;;1.60;1.30;;;3.40;99.90;;;;;;5054304;28;20944;-75
2023/03/11 09:36:52;;;;;;;1.63;1.10;;;3.30;99.90;;;;;;5048461;28;20447;-74
2023/03/11 09:39:20;;;;;;;1.97;1.30;;;3.30;99.90;;;;;;5047273;28;20490;-75
2023/03/11 09:41:53;;;;;;;2.03;1.30;;;3.10;99.90;;;;;;5048741;28;20476;-75
2023/03/11 09:44:24;;;;;;;2.47;1.50;;;5.30;99.90;;;;;;5045174;28;20941;-75
2023/03/11 09:47:26;;;;;;;1.40;1.10;;;4.10;99.90;;;;;;5048599;28;20457;-74
2023/03/11 09:50:06;;;;;;;1.80;1.43;;;4.10;99.90;;;;;;5046054;28;20977;-74
2023/03/11 09:52:40;;;;;;;3.63;1.20;;;4.20;99.90;;;;;;5046811;28;20739;-75
2023/03/11 09:55:21;;;;;;;1.50;1.40;;;5.20;99.90;;;;;;5046080;28;20704;-75
2023/03/11 09:57:48;;;;;;;3.07;1.37;;;3.80;99.90;;;;;;5047095;28;20455;-74
2023/03/11 10:00:20;;;;;;;2.13;1.50;;;3.70;99.90;;;;;;5048033;28;20797;-74
2023/03/11 10:02:48;;;;;;;2.20;1.20;;;3.80;99.90;;;;;;5049589;28;20478;-76
2023/03/11 10:05:21;;;;;;;1.40;1.30;;;3.80;99.90;;;;;;5048988;28;20461;-74
2023/03/11 10:07:56;;;;;;;2.07;1.10;;;3.00;99.90;;;;;;5048068;28;20442;-74
2023/03/11 10:10:28;;;;;;;3.43;2.00;;;3.40;99.90;;;;;;5043591;28;21031;-78
2023/03/11 10:13:04;;;;;;;3.53;1.40;;;4.30;99.90;;;;;;5039476;28;20489;-77
2023/03/11 10:15:47;;;;;;;2.03;1.50;;;4.50;99.90;;;;;;5048652;28;20542;-77
2023/03/11 10:18:42;;;;;;;1.10;1.00;;;4.30;99.90;;;;;;5048599;28;20569;-77
2023/03/11 10:21:14;;;;;;;1.03;0.93;;;4.60;99.90;;;;;;5048206;28;20521;-75
2023/03/11 10:23:55;;;;;;;2.90;1.10;;;5.20;99.90;;;;;;5044263;28;20453;-79
2023/03/11 10:26:31;;;;;;;1.10;1.00;;;6.80;99.90;;;;;;5044124;28;20449;-79
2023/03/11 10:29:02;;;;;;;1.90;1.37;;;5.50;99.90;;;;;;5043446;28;20441;-77
2023/03/11 10:31:34;;;;;;;1.20;1.10;;;4.80;99.90;;;;;;5048003;28;20478;-72
2023/03/11 10:34:06;;;;;;;2.90;1.30;;;4.90;99.90;;;;;;5057096;28;20449;-80
2023/03/11 10:36:39;;;;;;;4.80;1.30;;;4.70;99.90;;;;;;5050810;28;20960;-81
2023/03/11 10:39:06;;;;;;;1.73;1.10;;;5.80;99.90;;;;;;5053237;28;20504;-78
2023/03/11 10:41:44;;;;;;;3.77;1.00;;;4.70;99.90;;;;;;5052185;28;20545;-79
2023/03/11 10:44:15;;;;;;;1.20;1.10;;;5.40;99.90;;;;;;5058541;28;20418;-78
2023/03/11 10:46:42;;;;;;;4.63;1.50;;;4.00;99.90;;;;;;5052901;28;20445;-73
2023/03/11 10:49:15;;;;;;;1.80;1.10;;;3.30;99.90;;;;;;5048485;28;20457;-74
2023/03/11 10:51:44;;;;;;;1.17;1.07;;;4.10;99.90;;;;;;5047218;28;20481;-76
2023/03/11 10:54:22;;;;;;;4.93;1.43;;;4.00;99.90;;;;;;5049097;28;20442;-74
2023/03/11 10:56:55;;;;;;;1.20;1.10;;;3.90;99.90;;;;;;5050376;28;20458;-75
2023/03/11 10:59:25;;;;;;;1.10;1.00;;;4.00;99.90;;;;;;5051575;28;20442;-73
2023/03/11 11:01:56;;;;;;;1.40;1.10;;;4.90;99.90;;;;;;5062866;28;20458;-77
2023/03/11 11:04:35;;;;;;;5.20;1.40;;;4.00;99.90;;;;;;5060166;28;20442;-78
2023/03/11 11:07:21;;;;;;;1.87;1.50;;;3.60;99.90;;;;;;5056265;28;20454;-74
